Gulf Shores, AL

8:08 PM CST on February 08, 2016 (GMT -0600)
Little Lagoon | | Change Station
CLOSE
Current Station
Personal Weather Station
Location: Gulf Shores, AL
Elevation: 16 ft
Nearby Weather Stations
Active Advisory: Wind Advisory

Elev 16 ft 30.26 °N, 87.69 °W | Updated 7 minutes ago

Clear
Clear
47.2 °F
Feels Like 42 °F
N
10.9
Wind Variable Wind from West

Today
High -- | Low -- °F
--% Chance of Precip.
Yesterday
High -- | Low -- °F
Precip. -- in
Pressure 30.03 in
Visibility 10.0 miles
Clouds Clear
Windchill 42 °F
Dew Point 31 °F
Humidity 53%
Rainfall 0.11 in
Snow Depth Not available.
6:37 AM 5:33 PM
New Moon, 0% visible
METAR KJKA 090155Z AUTO 31010G24KT 10SM CLR 09/M06 A3003 RMK AO2 T00921063
Pressure 30.03 in
Visibility 10.0 miles
Clouds Clear
Windchill 42 °F
Dew Point 31 °F
Humidity 53%
Rainfall 0.11 in
Snow Depth Not available.
6:37 AM 5:33 PM
New Moon, 0% visible
METAR KJKA 090155Z AUTO 31010G24KT 10SM CLR 09/M06 A3003 RMK AO2 T00921063

10-Day Weather Forecast

Almanac

Astronomy

Feb. 08, 2016 Rise Set
Actual Time
Civil Twilight
Nautical Twilight
Astronomical Twilight
Moon
Length of Visible Light
Length of Day
Tomorrow will be .
, % of the Moon is Illuminated

Today's Extremes

State Highs State Lows

Community

WunderPhotos

Upload Photos

1,891,527 photos uploaded!

WunderBlog® & News

Nearby

Air Quality

  Air Quality AQ Index Pollutant
Not available.

Snow Depth

Station Depth Elevation

Earthquake Activity

City Distance Mag. Time & Date
Minimum magnitude displayed is 2.5.

Coastal Water Temperatures

Place Temperature

Stations

Nearby Weather Stations

Station Location Temp. Windchill Dew Point Humidity Wind Precip. Elev Updated Type
                   

Watches & Warnings

Wind Advisory
Issued: 6:24 PM CST Feb. 8, 2016 – National Weather Service

... Wind Advisory remains in effect until 6 am CST Tuesday...

* timing... through tonight.

* Winds... northwest 15 to 25 mph... with frequent higher gusts around
30 mph likely.

Precautionary/preparedness actions...

A Wind Advisory means that winds of 30 to 39 mph are expected.
Winds this strong can make driving difficult... especially for
high profile vehicles. Use extra caution.